Time;durP1;ratioP1;P1;durP2;ratioP2;P2;SDS_P1;SDS_P2;PMS_P1;PMS_P2;Temp;Humidity;BMP_temperature;BMP_pressure;BME280_temperature;BME280_humidity;BME280_pressure;Samples;Min_cycle;Max_cycle;Signal;HPM_P1;HPM_P2
2022/03/07 00:01:33;;;;;;;0.10;0.10;;;;;;;;;;5028721;28;20710;-78
2022/03/07 00:04:02;;;;;;;0.10;0.10;;;;;;;;;;5025192;28;20665;-78
2022/03/07 00:06:29;;;;;;;0.10;0.10;;;;;;;;;;5045565;28;20617;-76
2022/03/07 00:08:58;;;;;;;0.20;0.20;;;;;;;;;;5024145;28;20716;-77
2022/03/07 00:11:26;;;;;;;0.20;0.20;;;;;;;;;;5024672;28;20622;-77
2022/03/07 00:13:53;;;;;;;0.20;0.20;;;;;;;;;;5028169;28;20656;-77
2022/03/07 00:16:21;;;;;;;0.20;0.20;;;;;;;;;;5026785;28;21086;-77
2022/03/07 00:18:48;;;;;;;0.10;0.10;;;;;;;;;;5020917;28;20621;-77
2022/03/07 00:21:16;;;;;;;0.20;0.20;;;;;;;;;;5024789;28;20756;-76
2022/03/07 00:23:43;;;;;;;0.20;0.20;;;;;;;;;;5042373;28;20654;-75
2022/03/07 00:26:12;;;;;;;0.20;0.20;;;;;;;;;;5025199;28;21209;-75
2022/03/07 00:28:40;;;;;;;0.10;0.10;;;;;;;;;;5027091;28;20699;-77
2022/03/07 00:31:07;;;;;;;0.20;0.20;;;;;;;;;;5026099;28;20629;-77
2022/03/07 00:33:35;;;;;;;0.10;0.10;;;;;;;;;;5028118;28;20654;-75
2022/03/07 00:36:03;;;;;;;0.20;0.20;;;;;;;;;;5026478;28;20642;-77
2022/03/07 00:38:30;;;;;;;0.20;0.20;;;;;;;;;;5022278;28;20653;-77
2022/03/07 00:40:58;;;;;;;0.13;0.13;;;;;;;;;;5025334;28;20629;-75
2022/03/07 00:43:27;;;;;;;0.10;0.10;;;;;;;;;;5023285;28;20653;-75
2022/03/07 00:45:56;;;;;;;0.17;0.17;;;;;;;;;;5023873;28;21210;-76
2022/03/07 00:48:24;;;;;;;0.10;0.10;;;;;;;;;;5033145;28;20622;-76
2022/03/07 00:50:53;;;;;;;0.20;0.20;;;;;;;;;;5028502;28;20724;-76
2022/03/07 00:53:21;;;;;;;0.10;0.10;;;;;;;;;;5025334;28;20657;-76
2022/03/07 00:55:49;;;;;;;0.10;0.10;;;;;;;;;;5022453;28;20664;-76
2022/03/07 00:58:17;;;;;;;0.20;0.20;;;;;;;;;;5021198;28;21194;-75
2022/03/07 01:00:47;;;;;;;0.20;0.20;;;;;;;;;;5031069;28;20618;-76
2022/03/07 01:03:15;;;;;;;0.20;0.20;;;;;;;;;;5025881;28;20657;-75
2022/03/07 01:05:43;;;;;;;0.10;0.10;;;;;;;;;;5030019;28;20622;-75
2022/03/07 01:08:11;;;;;;;0.10;0.10;;;;;;;;;;5027391;28;20630;-76
2022/03/07 01:10:38;;;;;;;0.10;0.10;;;;;;;;;;5031017;28;20630;-76
2022/03/07 01:13:06;;;;;;;0.10;0.10;;;;;;;;;;5025719;28;20666;-75
2022/03/07 01:15:33;;;;;;;0.20;0.20;;;;;;;;;;5032033;28;20657;-76
2022/03/07 01:18:04;;;;;;;0.10;0.10;;;;;;;;;;5027866;28;20664;-76
2022/03/07 01:20:31;;;;;;;0.20;0.20;;;;;;;;;;5030611;28;20635;-76
2022/03/07 01:22:58;;;;;;;0.20;0.20;;;;;;;;;;5030363;28;20664;-76
2022/03/07 01:25:26;;;;;;;0.20;0.20;;;;;;;;;;5051395;28;20694;-76
2022/03/07 01:27:53;;;;;;;0.20;0.20;;;;;;;;;;5032341;28;20658;-76
2022/03/07 01:30:20;;;;;;;0.20;0.20;;;;;;;;;;5054647;28;20617;-76
2022/03/07 01:32:48;;;;;;;0.20;0.20;;;;;;;;;;5038530;28;20676;-76
2022/03/07 01:35:21;;;;;;;0.20;0.20;;;;;;;;;;5039606;28;20668;-77
2022/03/07 01:37:51;;;;;;;0.10;0.10;;;;;;;;;;5045878;28;20621;-75
2022/03/07 01:40:21;;;;;;;0.20;0.20;;;;;;;;;;5033924;28;20652;-75
2022/03/07 01:42:49;;;;;;;0.20;0.20;;;;;;;;;;5032389;28;20745;-76
2022/03/07 01:45:17;;;;;;;0.20;0.20;;;;;;;;;;5032474;28;20629;-76
2022/03/07 01:47:45;;;;;;;0.10;0.10;;;;;;;;;;5047204;28;20618;-75
2022/03/07 01:50:16;;;;;;;0.17;0.17;;;;;;;;;;5030735;28;20624;-75
2022/03/07 01:52:47;;;;;;;0.10;0.10;;;;;;;;;;5029641;28;20653;-76
2022/03/07 01:55:16;;;;;;;0.17;0.17;;;;;;;;;;5028637;28;20657;-75
2022/03/07 01:57:50;;;;;;;0.10;0.10;;;;;;;;;;5025977;28;20653;-76
2022/03/07 02:00:19;;;;;;;0.20;0.20;;;;;;;;;;5029787;28;20636;-75
2022/03/07 02:02:47;;;;;;;0.20;0.20;;;;;;;;;;5027753;28;20726;-76
2022/03/07 02:05:18;;;;;;;0.10;0.10;;;;;;;;;;5029000;28;20653;-76
2022/03/07 02:07:55;;;;;;;0.20;0.20;;;;;;;;;;5024995;28;20630;-76
2022/03/07 02:10:27;;;;;;;0.20;0.20;;;;;;;;;;5030363;28;20624;-76
2022/03/07 02:12:56;;;;;;;0.10;0.10;;;;;;;;;;5027126;28;20653;-75
2022/03/07 02:15:25;;;;;;;0.10;0.10;;;;;;;;;;5030180;28;20649;-76
2022/03/07 02:17:54;;;;;;;0.20;0.20;;;;;;;;;;5027854;28;20733;-76
2022/03/07 02:20:22;;;;;;;0.20;0.20;;;;;;;;;;5047733;28;20617;-76
2022/03/07 02:22:50;;;;;;;0.17;0.17;;;;;;;;;;5028861;28;20683;-76
2022/03/07 02:25:18;;;;;;;0.10;0.10;;;;;;;;;;5030332;28;20606;-75
2022/03/07 02:27:46;;;;;;;0.10;0.10;;;;;;;;;;5028895;28;20617;-75
2022/03/07 02:30:13;;;;;;;0.10;0.10;;;;;;;;;;5043241;28;20605;-76
2022/03/07 02:32:42;;;;;;;0.10;0.10;;;;;;;;;;5029286;28;20641;-76
2022/03/07 02:35:10;;;;;;;0.10;0.10;;;;;;;;;;5029586;28;20714;-75
2022/03/07 02:37:37;;;;;;;0.20;0.20;;;;;;;;;;5032129;28;20615;-75
2022/03/07 02:40:06;;;;;;;0.20;0.20;;;;;;;;;;5028557;28;20633;-76
2022/03/07 02:42:34;;;;;;;0.10;0.10;;;;;;;;;;5025146;28;20648;-76
2022/03/07 02:45:02;;;;;;;0.10;0.10;;;;;;;;;;5029540;28;20640;-76
2022/03/07 02:47:29;;;;;;;0.20;0.20;;;;;;;;;;5025161;28;20633;-77
2022/03/07 02:49:57;;;;;;;0.20;0.20;;;;;;;;;;5029724;28;20644;-76
2022/03/07 02:52:24;;;;;;;0.10;0.10;;;;;;;;;;5027198;28;20645;-76
2022/03/07 02:54:52;;;;;;;0.10;0.10;;;;;;;;;;5028970;28;21211;-76
2022/03/07 02:57:20;;;;;;;0.10;0.10;;;;;;;;;;5046120;28;20693;-76
2022/03/07 02:59:48;;;;;;;0.20;0.20;;;;;;;;;;5027261;28;20625;-76
2022/03/07 03:02:16;;;;;;;0.10;0.10;;;;;;;;;;5028801;28;20672;-75
2022/03/07 03:04:43;;;;;;;0.20;0.20;;;;;;;;;;5028412;28;20656;-76
2022/03/07 03:07:10;;;;;;;0.20;0.20;;;;;;;;;;5027369;28;20683;-76
2022/03/07 03:09:41;;;;;;;0.17;0.17;;;;;;;;;;5045410;28;20614;-76
2022/03/07 03:12:10;;;;;;;0.20;0.20;;;;;;;;;;5042745;28;20686;-75
2022/03/07 03:14:40;;;;;;;0.13;0.13;;;;;;;;;;5030290;28;20321;-75
2022/03/07 03:17:08;;;;;;;0.20;0.20;;;;;;;;;;5046581;28;20680;-77
2022/03/07 03:19:36;;;;;;;0.20;0.20;;;;;;;;;;5026175;28;20691;-75
2022/03/07 03:22:03;;;;;;;0.13;0.13;;;;;;;;;;5023208;28;20653;-76
2022/03/07 03:24:31;;;;;;;0.10;0.10;;;;;;;;;;5026447;28;21289;-75
2022/03/07 03:26:58;;;;;;;0.20;0.20;;;;;;;;;;5027196;28;20621;-76
2022/03/07 03:29:26;;;;;;;0.13;0.13;;;;;;;;;;5025994;28;20622;-76
2022/03/07 03:31:55;;;;;;;0.10;0.10;;;;;;;;;;5022170;28;20652;-76
2022/03/07 03:34:22;;;;;;;0.20;0.20;;;;;;;;;;5024580;28;20702;-77
2022/03/07 03:36:49;;;;;;;0.10;0.10;;;;;;;;;;5041582;28;20653;-75
2022/03/07 03:39:17;;;;;;;0.20;0.20;;;;;;;;;;5026598;28;20624;-76
2022/03/07 03:41:45;;;;;;;0.20;0.20;;;;;;;;;;5026524;28;20626;-76
2022/03/07 03:44:12;;;;;;;0.10;0.10;;;;;;;;;;5027967;28;20663;-76
2022/03/07 03:46:40;;;;;;;0.20;0.20;;;;;;;;;;5045314;28;20610;-76
2022/03/07 03:49:09;;;;;;;0.20;0.20;;;;;;;;;;5026542;28;20745;-76
2022/03/07 03:51:37;;;;;;;0.20;0.20;;;;;;;;;;5044175;28;20609;-76
2022/03/07 03:54:04;;;;;;;0.15;0.15;;;;;;;;;;5025108;28;20231;-76
2022/03/07 03:56:32;;;;;;;0.20;0.20;;;;;;;;;;5026924;28;20231;-75
2022/03/07 03:59:01;;;;;;;0.10;0.10;;;;;;;;;;5024973;28;20653;-76
2022/03/07 04:01:29;;;;;;;0.10;0.10;;;;;;;;;;5041998;28;20245;-75
2022/03/07 04:03:57;;;;;;;0.10;0.10;;;;;;;;;;5040313;28;20222;-76
2022/03/07 04:06:26;;;;;;;0.10;0.10;;;;;;;;;;5025744;28;20335;-75
2022/03/07 04:08:53;;;;;;;0.20;0.20;;;;;;;;;;5026232;28;20630;-76
2022/03/07 04:11:22;;;;;;;0.10;0.10;;;;;;;;;;5029470;28;20203;-77
2022/03/07 04:13:49;;;;;;;0.20;0.20;;;;;;;;;;5024862;28;20290;-76
2022/03/07 04:16:16;;;;;;;0.10;0.10;;;;;;;;;;5026788;28;20218;-76
2022/03/07 04:18:44;;;;;;;0.20;0.20;;;;;;;;;;5026544;28;20207;-76
2022/03/07 04:21:11;;;;;;;0.20;0.20;;;;;;;;;;5044793;28;20246;-76
2022/03/07 04:23:39;;;;;;;0.20;0.20;;;;;;;;;;5019604;28;20220;-77
2022/03/07 04:26:08;;;;;;;0.20;0.20;;;;;;;;;;5038073;28;20195;-76
2022/03/07 04:28:35;;;;;;;0.20;0.20;;;;;;;;;;5044723;28;20203;-76
2022/03/07 04:31:02;;;;;;;0.20;0.20;;;;;;;;;;5043451;28;20206;-75
2022/03/07 04:33:30;;;;;;;0.20;0.20;;;;;;;;;;5019460;28;20251;-75
2022/03/07 04:35:57;;;;;;;0.20;0.20;;;;;;;;;;5044667;28;20249;-76
2022/03/07 04:38:26;;;;;;;0.13;0.13;;;;;;;;;;5043000;28;20261;-76
2022/03/07 04:40:55;;;;;;;0.20;0.20;;;;;;;;;;5044201;28;20218;-76
2022/03/07 04:43:23;;;;;;;0.20;0.20;;;;;;;;;;5020042;28;20229;-76
2022/03/07 04:45:52;;;;;;;0.20;0.20;;;;;;;;;;5025393;28;20209;-76
2022/03/07 04:48:20;;;;;;;0.20;0.20;;;;;;;;;;5023850;28;20213;-77
2022/03/07 04:50:48;;;;;;;0.10;0.10;;;;;;;;;;5041460;28;20188;-76
2022/03/07 04:53:15;;;;;;;0.10;0.10;;;;;;;;;;5026764;28;20262;-77
2022/03/07 04:55:42;;;;;;;0.20;0.20;;;;;;;;;;5020560;28;20199;-75
2022/03/07 04:58:11;;;;;;;0.20;0.20;;;;;;;;;;5021907;28;20229;-76
2022/03/07 05:00:38;;;;;;;0.20;0.20;;;;;;;;;;5024174;28;20260;-76
2022/03/07 05:03:05;;;;;;;0.20;0.20;;;;;;;;;;5022703;28;20226;-75
2022/03/07 05:05:33;;;;;;;0.20;0.20;;;;;;;;;;5022452;28;20203;-76
2022/03/07 05:08:00;;;;;;;0.20;0.20;;;;;;;;;;5028086;28;20211;-75
2022/03/07 05:10:28;;;;;;;0.20;0.20;;;;;;;;;;5027078;28;20205;-76
2022/03/07 05:12:55;;;;;;;0.20;0.20;;;;;;;;;;5026677;28;20309;-75
2022/03/07 05:15:24;;;;;;;0.10;0.10;;;;;;;;;;5030672;28;20240;-75
2022/03/07 05:17:54;;;;;;;0.20;0.20;;;;;;;;;;5045220;28;20219;-75
2022/03/07 05:20:22;;;;;;;0.20;0.20;;;;;;;;;;5043743;28;20203;-77
2022/03/07 05:22:50;;;;;;;0.20;0.20;;;;;;;;;;5043538;28;20693;-79
2022/03/07 05:25:18;;;;;;;0.10;0.10;;;;;;;;;;5044981;28;20207;-76
2022/03/07 05:27:46;;;;;;;0.20;0.20;;;;;;;;;;5042850;28;20195;-75
2022/03/07 05:30:15;;;;;;;0.20;0.20;;;;;;;;;;5018776;28;20231;-75
2022/03/07 05:32:44;;;;;;;0.20;0.20;;;;;;;;;;5025865;28;20242;-76
2022/03/07 05:35:12;;;;;;;0.20;0.20;;;;;;;;;;5023811;28;20207;-74
2022/03/07 05:37:39;;;;;;;0.20;0.20;;;;;;;;;;5043592;28;20222;-74
2022/03/07 05:40:07;;;;;;;0.20;0.20;;;;;;;;;;5027525;28;20215;-74
2022/03/07 05:42:35;;;;;;;0.20;0.20;;;;;;;;;;5024471;28;20228;-76
2022/03/07 05:45:02;;;;;;;0.20;0.20;;;;;;;;;;5025353;28;20252;-73
2022/03/07 05:47:30;;;;;;;0.20;0.20;;;;;;;;;;5040055;28;20227;-75
2022/03/07 05:49:59;;;;;;;0.20;0.20;;;;;;;;;;5047892;28;20195;-75
2022/03/07 05:52:27;;;;;;;0.20;0.20;;;;;;;;;;5027457;28;20223;-77
2022/03/07 05:54:55;;;;;;;0.20;0.20;;;;;;;;;;5030422;28;20223;-77
2022/03/07 05:57:22;;;;;;;0.20;0.20;;;;;;;;;;5027518;28;20223;-76
2022/03/07 05:59:50;;;;;;;0.10;0.10;;;;;;;;;;5027838;28;20203;-75
2022/03/07 06:02:17;;;;;;;0.20;0.20;;;;;;;;;;5045994;28;20211;-76
2022/03/07 06:04:45;;;;;;;0.20;0.20;;;;;;;;;;5043732;28;20203;-77
2022/03/07 06:07:14;;;;;;;0.20;0.20;;;;;;;;;;5029161;28;20245;-76
2022/03/07 06:09:41;;;;;;;0.20;0.20;;;;;;;;;;5046981;28;20273;-77
2022/03/07 06:12:09;;;;;;;0.20;0.20;;;;;;;;;;5022838;28;20261;-76
2022/03/07 06:14:37;;;;;;;0.20;0.20;;;;;;;;;;5028680;28;20199;-77
2022/03/07 06:17:05;;;;;;;0.20;0.20;;;;;;;;;;5025679;28;20716;-77
2022/03/07 06:19:32;;;;;;;0.20;0.20;;;;;;;;;;5047370;28;20192;-77
2022/03/07 06:21:59;;;;;;;0.20;0.20;;;;;;;;;;5025266;28;20207;-76
2022/03/07 06:24:29;;;;;;;0.20;0.20;;;;;;;;;;5045237;28;20203;-77
2022/03/07 06:26:57;;;;;;;0.20;0.20;;;;;;;;;;5026019;28;20201;-77
2022/03/07 06:29:28;;;;;;;0.20;0.20;;;;;;;;;;5028267;28;20277;-77
2022/03/07 06:31:56;;;;;;;0.20;0.20;;;;;;;;;;5024837;28;20199;-77
2022/03/07 06:34:23;;;;;;;0.20;0.20;;;;;;;;;;5044267;28;20272;-77
2022/03/07 06:36:51;;;;;;;0.20;0.20;;;;;;;;;;5042029;28;20211;-78
2022/03/07 06:39:19;;;;;;;0.20;0.20;;;;;;;;;;5029069;28;20199;-77
2022/03/07 06:41:48;;;;;;;0.20;0.20;;;;;;;;;;5027563;28;20650;-77
2022/03/07 06:44:18;;;;;;;0.20;0.20;;;;;;;;;;5046040;28;20221;-77
2022/03/07 06:46:46;;;;;;;0.10;0.10;;;;;;;;;;5027559;28;20218;-77
2022/03/07 06:49:13;;;;;;;0.25;0.25;;;;;;;;;;5026363;28;20210;-77
2022/03/07 06:51:41;;;;;;;0.20;0.20;;;;;;;;;;5043557;28;20206;-77
2022/03/07 06:54:08;;;;;;;0.20;0.20;;;;;;;;;;5023715;28;20239;-76
2022/03/07 06:56:36;;;;;;;0.10;0.10;;;;;;;;;;5021379;28;20204;-77
2022/03/07 06:59:05;;;;;;;0.10;0.10;;;;;;;;;;5042414;28;20207;-77
2022/03/07 07:01:32;;;;;;;0.20;0.20;;;;;;;;;;5027782;28;20187;-77
2022/03/07 07:04:00;;;;;;;0.20;0.20;;;;;;;;;;5024815;28;20254;-77
2022/03/07 07:06:27;;;;;;;0.20;0.20;;;;;;;;;;5020483;28;20191;-78
2022/03/07 07:08:55;;;;;;;0.20;0.20;;;;;;;;;;5026276;28;20220;-78
2022/03/07 07:11:22;;;;;;;0.20;0.20;;;;;;;;;;5027601;28;20296;-77
2022/03/07 07:13:49;;;;;;;0.10;0.10;;;;;;;;;;5040648;28;20645;-78
2022/03/07 07:16:19;;;;;;;0.20;0.20;;;;;;;;;;5027260;28;21293;-78
2022/03/07 07:18:47;;;;;;;0.20;0.20;;;;;;;;;;5026670;28;20235;-77
2022/03/07 07:21:14;;;;;;;0.20;0.20;;;;;;;;;;5046051;28;20622;-77
2022/03/07 07:23:41;;;;;;;0.20;0.20;;;;;;;;;;5038205;28;20642;-77
2022/03/07 07:26:10;;;;;;;0.20;0.20;;;;;;;;;;5027455;28;20630;-77
2022/03/07 07:28:37;;;;;;;0.20;0.20;;;;;;;;;;5022992;28;20740;-77
2022/03/07 07:31:05;;;;;;;0.20;0.20;;;;;;;;;;5045775;28;20617;-77
2022/03/07 07:33:34;;;;;;;0.20;0.20;;;;;;;;;;5025749;28;20748;-77
2022/03/07 07:36:01;;;;;;;0.20;0.20;;;;;;;;;;5041656;28;20633;-78
2022/03/07 07:38:29;;;;;;;0.20;0.20;;;;;;;;;;5027680;28;20660;-78
2022/03/07 07:40:57;;;;;;;0.10;0.10;;;;;;;;;;5024188;28;20637;-78
2022/03/07 07:43:26;;;;;;;0.27;0.27;;;;;;;;;;5028261;28;20656;-77
2022/03/07 07:45:57;;;;;;;0.10;0.10;;;;;;;;;;5024022;28;20638;-78
2022/03/07 07:48:24;;;;;;;0.20;0.20;;;;;;;;;;5024242;28;20626;-78
2022/03/07 07:50:53;;;;;;;0.10;0.10;;;;;;;;;;5024210;28;20663;-78
2022/03/07 07:53:20;;;;;;;0.10;0.10;;;;;;;;;;5027768;28;20673;-78
2022/03/07 07:55:48;;;;;;;0.20;0.20;;;;;;;;;;5023710;28;20629;-78
2022/03/07 07:58:19;;;;;;;0.13;0.13;;;;;;;;;;5042749;28;20655;-78
2022/03/07 08:00:46;;;;;;;0.20;0.20;;;;;;;;;;5022634;28;20650;-78
2022/03/07 08:03:14;;;;;;;0.20;0.20;;;;;;;;;;5020854;28;20719;-78
2022/03/07 08:05:45;;;;;;;0.10;0.10;;;;;;;;;;5024504;28;20630;-78
2022/03/07 08:08:14;;;;;;;0.20;0.20;;;;;;;;;;5044442;28;20606;-78
2022/03/07 08:10:41;;;;;;;0.20;0.20;;;;;;;;;;5026154;28;20629;-78
2022/03/07 08:13:09;;;;;;;0.10;0.10;;;;;;;;;;5044760;28;20723;-78
2022/03/07 08:15:36;;;;;;;0.20;0.20;;;;;;;;;;5025105;28;20641;-78
2022/03/07 08:18:04;;;;;;;0.10;0.10;;;;;;;;;;5017537;28;20669;-77
2022/03/07 08:20:35;;;;;;;0.10;0.10;;;;;;;;;;5023241;28;20672;-78
2022/03/07 08:23:02;;;;;;;0.10;0.10;;;;;;;;;;5027664;28;20657;-77
2022/03/07 08:25:31;;;;;;;0.10;0.10;;;;;;;;;;5026838;28;20621;-79
2022/03/07 08:27:59;;;;;;;0.10;0.10;;;;;;;;;;5044939;28;20613;-78
2022/03/07 08:30:28;;;;;;;0.10;0.10;;;;;;;;;;5044658;28;20601;-78
2022/03/07 08:32:56;;;;;;;0.10;0.10;;;;;;;;;;5026606;28;20795;-78
2022/03/07 08:35:24;;;;;;;0.20;0.20;;;;;;;;;;5045103;28;20717;-78
2022/03/07 08:37:53;;;;;;;0.20;0.20;;;;;;;;;;5025805;28;20669;-79
2022/03/07 08:40:21;;;;;;;0.10;0.10;;;;;;;;;;5022847;28;20618;-78
2022/03/07 08:42:50;;;;;;;0.20;0.20;;;;;;;;;;5026125;28;21144;-79
2022/03/07 08:45:17;;;;;;;0.13;0.13;;;;;;;;;;5026409;28;20625;-78
2022/03/07 08:47:45;;;;;;;0.10;0.10;;;;;;;;;;5025764;28;20613;-79
2022/03/07 08:50:15;;;;;;;0.10;0.10;;;;;;;;;;5027317;28;20626;-78
2022/03/07 08:52:42;;;;;;;0.10;0.10;;;;;;;;;;5044373;28;20779;-79
2022/03/07 08:55:10;;;;;;;0.10;0.10;;;;;;;;;;5026322;28;20617;-78
2022/03/07 08:57:38;;;;;;;0.17;0.17;;;;;;;;;;5025403;28;20648;-78
2022/03/07 09:00:08;;;;;;;0.20;0.20;;;;;;;;;;5026723;28;20633;-78
2022/03/07 09:02:36;;;;;;;0.20;0.20;;;;;;;;;;5023600;28;20664;-78
2022/03/07 09:05:03;;;;;;;0.10;0.10;;;;;;;;;;5027136;28;20662;-78
2022/03/07 09:07:32;;;;;;;0.10;0.10;;;;;;;;;;5042210;28;20594;-77
2022/03/07 09:10:01;;;;;;;0.10;0.10;;;;;;;;;;5026836;28;20633;-79
2022/03/07 09:12:28;;;;;;;0.10;0.10;;;;;;;;;;5025271;28;20719;-78
2022/03/07 09:14:56;;;;;;;0.10;0.10;;;;;;;;;;5025324;28;20638;-78
2022/03/07 09:17:25;;;;;;;0.10;0.10;;;;;;;;;;5021349;28;20701;-79
2022/03/07 09:19:53;;;;;;;0.10;0.10;;;;;;;;;;5027031;28;20720;-78
2022/03/07 09:22:21;;;;;;;0.10;0.10;;;;;;;;;;5046453;28;20719;-79
2022/03/07 09:24:48;;;;;;;0.10;0.10;;;;;;;;;;5029115;28;20664;-76
2022/03/07 09:27:16;;;;;;;0.10;0.10;;;;;;;;;;5030332;28;20632;-78
2022/03/07 09:29:43;;;;;;;0.10;0.10;;;;;;;;;;5046840;28;20621;-78
2022/03/07 09:32:11;;;;;;;0.10;0.10;;;;;;;;;;5032755;28;20992;-78
2022/03/07 09:34:43;;;;;;;0.10;0.10;;;;;;;;;;5030393;28;20630;-78
2022/03/07 09:37:11;;;;;;;0.10;0.10;;;;;;;;;;5030533;28;20759;-78
2022/03/07 09:39:38;;;;;;;0.10;0.10;;;;;;;;;;5030446;28;20641;-78
2022/03/07 09:42:06;;;;;;;0.10;0.10;;;;;;;;;;5046257;28;20617;-78
2022/03/07 09:44:35;;;;;;;0.10;0.10;;;;;;;;;;5041326;28;20737;-78
2022/03/07 09:47:03;;;;;;;0.10;0.10;;;;;;;;;;5026670;28;20617;-78
2022/03/07 09:49:31;;;;;;;0.10;0.10;;;;;;;;;;5044908;28;20614;-78
2022/03/07 09:52:00;;;;;;;0.10;0.10;;;;;;;;;;5029019;28;20653;-77
2022/03/07 09:54:28;;;;;;;0.20;0.20;;;;;;;;;;5047691;28;20676;-78
2022/03/07 09:56:56;;;;;;;0.10;0.10;;;;;;;;;;5022595;28;20658;-78
2022/03/07 09:59:25;;;;;;;0.10;0.10;;;;;;;;;;5025252;28;20649;-77
2022/03/07 10:02:02;;;;;;;0.10;0.10;;;;;;;;;;5028475;28;20610;-78
2022/03/07 10:04:31;;;;;;;0.10;0.10;;;;;;;;;;5046687;28;20621;-77
2022/03/07 10:06:59;;;;;;;0.10;0.10;;;;;;;;;;5030021;28;20637;-78
2022/03/07 10:09:28;;;;;;;0.10;0.10;;;;;;;;;;5045005;28;20606;-78
2022/03/07 10:12:00;;;;;;;0.10;0.10;;;;;;;;;;5045213;28;20700;-77
2022/03/07 10:14:31;;;;;;;0.10;0.10;;;;;;;;;;5030030;28;20622;-77
2022/03/07 10:16:59;;;;;;;0.10;0.10;;;;;;;;;;5025549;28;20629;-79
2022/03/07 10:19:27;;;;;;;0.10;0.10;;;;;;;;;;5027294;28;20683;-77
2022/03/07 10:21:54;;;;;;;0.10;0.10;;;;;;;;;;5027842;28;20637;-77
2022/03/07 10:24:33;;;;;;;0.10;0.10;;;;;;;;;;5025460;28;20648;-77
2022/03/07 10:27:01;;;;;;;0.10;0.10;;;;;;;;;;5029151;28;20668;-77
2022/03/07 10:29:31;;;;;;;0.10;0.10;;;;;;;;;;5024301;28;20618;-77
2022/03/07 10:31:58;;;;;;;0.10;0.10;;;;;;;;;;5029884;28;20633;-78
2022/03/07 10:34:28;;;;;;;0.10;0.10;;;;;;;;;;5047234;28;20652;-78
2022/03/07 10:36:56;;;;;;;0.10;0.10;;;;;;;;;;5028658;28;20613;-78
2022/03/07 10:39:25;;;;;;;0.10;0.10;;;;;;;;;;5043773;28;20664;-78
2022/03/07 10:41:55;;;;;;;0.10;0.10;;;;;;;;;;5044423;28;20625;-77
2022/03/07 10:44:27;;;;;;;0.10;0.10;;;;;;;;;;5027635;28;20630;-78
2022/03/07 10:47:06;;;;;;;0.10;0.10;;;;;;;;;;5042859;28;20622;-78
2022/03/07 10:49:33;;;;;;;0.10;0.10;;;;;;;;;;5028546;28;20621;-77
2022/03/07 10:52:03;;;;;;;0.10;0.10;;;;;;;;;;5028939;28;20732;-77
2022/03/07 10:54:30;;;;;;;0.00;0.00;;;;;;;;;;5028198;28;20633;-77
2022/03/07 10:57:02;;;;;;;0.10;0.10;;;;;;;;;;5027189;28;20625;-77
2022/03/07 10:59:31;;;;;;;0.07;0.07;;;;;;;;;;5025489;28;20661;-77
2022/03/07 11:02:01;;;;;;;0.10;0.10;;;;;;;;;;5026207;28;20717;-77
2022/03/07 11:04:29;;;;;;;0.10;0.10;;;;;;;;;;5025076;28;20621;-78
2022/03/07 11:06:57;;;;;;;0.10;0.10;;;;;;;;;;5045598;28;20630;-77
2022/03/07 11:09:25;;;;;;;0.10;0.10;;;;;;;;;;5024421;28;20659;-79
2022/03/07 11:11:53;;;;;;;0.10;0.10;;;;;;;;;;5028287;28;20672;-78
2022/03/07 11:14:23;;;;;;;0.00;0.00;;;;;;;;;;5045521;28;20632;-78
2022/03/07 11:16:56;;;;;;;0.10;0.10;;;;;;;;;;5025341;28;20706;-79
2022/03/07 11:19:24;;;;;;;0.10;0.10;;;;;;;;;;5028658;28;20676;-78
2022/03/07 11:21:52;;;;;;;0.10;0.10;;;;;;;;;;5027755;28;20618;-78
2022/03/07 11:24:24;;;;;;;0.10;0.10;;;;;;;;;;5026705;28;20676;-78
2022/03/07 11:26:53;;;;;;;0.10;0.10;;;;;;;;;;5026929;28;20622;-78
2022/03/07 11:29:20;;;;;;;0.10;0.10;;;;;;;;;;5027833;28;20634;-77
2022/03/07 11:32:01;;;;;;;0.10;0.10;;;;;;;;;;5045116;28;20199;-77
2022/03/07 11:34:29;;;;;;;0.10;0.10;;;;;;;;;;5040519;28;20290;-77
2022/03/07 11:36:59;;;;;;;0.10;0.10;;;;;;;;;;5026004;28;20199;-78
2022/03/07 11:39:31;;;;;;;0.10;0.10;;;;;;;;;;5024254;28;20658;-78
2022/03/07 11:42:08;;;;;;;0.10;0.10;;;;;;;;;;5023341;28;20214;-78
2022/03/07 11:44:36;;;;;;;0.10;0.10;;;;;;;;;;5027661;28;20710;-78
2022/03/07 11:47:16;;;;;;;0.10;0.10;;;;;;;;;;5027039;28;20625;-77
2022/03/07 11:49:44;;;;;;;0.00;0.00;;;;;;;;;;5026983;28;20201;-77
2022/03/07 11:52:16;;;;;;;0.10;0.10;;;;;;;;;;5029446;28;20237;-78
2022/03/07 11:54:54;;;;;;;0.10;0.10;;;;;;;;;;5044519;28;20645;-77
2022/03/07 11:57:32;;;;;;;0.10;0.10;;;;;;;;;;5031161;28;20283;-77
2022/03/07 12:00:10;;;;;;;0.10;0.10;;;;;;;;;;5041422;28;20225;-78
2022/03/07 12:02:42;;;;;;;0.10;0.10;;;;;;;;;;5042770;28;20223;-78
2022/03/07 12:05:20;;;;;;;0.10;0.10;;;;;;;;;;5040265;28;20614;-77
2022/03/07 12:07:48;;;;;;;0.10;0.10;;;;;;;;;;5042438;28;20199;-78
2022/03/07 12:10:15;;;;;;;0.10;0.10;;;;;;;;;;5044257;28;20199;-78
2022/03/07 12:12:43;;;;;;;0.10;0.10;;;;;;;;;;5027165;28;20280;-78
2022/03/07 12:15:11;;;;;;;0.10;0.10;;;;;;;;;;5027192;28;20234;-78
2022/03/07 12:17:39;;;;;;;0.10;0.10;;;;;;;;;;5021354;28;20243;-78
2022/03/07 12:20:08;;;;;;;0.00;0.00;;;;;;;;;;5024235;28;20219;-79
2022/03/07 12:22:36;;;;;;;0.10;0.10;;;;;;;;;;5040044;28;20703;-78
2022/03/07 12:25:05;;;;;;;0.10;0.10;;;;;;;;;;5040273;28;20199;-77
2022/03/07 12:27:37;;;;;;;0.10;0.10;;;;;;;;;;5041711;28;20207;-78
2022/03/07 12:30:05;;;;;;;0.10;0.10;;;;;;;;;;5044490;28;20618;-77
2022/03/07 12:32:32;;;;;;;0.10;0.10;;;;;;;;;;5026547;28;20668;-78
2022/03/07 12:35:00;;;;;;;0.10;0.10;;;;;;;;;;5021631;28;20716;-77
2022/03/07 12:37:29;;;;;;;0.10;0.10;;;;;;;;;;5024569;28;20634;-78
2022/03/07 12:39:58;;;;;;;0.10;0.10;;;;;;;;;;5045039;28;20653;-78
2022/03/07 12:42:27;;;;;;;0.10;0.10;;;;;;;;;;5026965;28;20234;-77
2022/03/07 12:44:54;;;;;;;0.00;0.00;;;;;;;;;;5021682;28;20206;-78
2022/03/07 12:47:26;;;;;;;0.10;0.10;;;;;;;;;;5027318;28;20211;-78
2022/03/07 12:49:54;;;;;;;0.10;0.10;;;;;;;;;;5024768;28;20206;-79
2022/03/07 12:52:24;;;;;;;0.10;0.10;;;;;;;;;;5028665;28;20772;-78
2022/03/07 12:54:53;;;;;;;0.10;0.10;;;;;;;;;;5025693;28;20629;-78
2022/03/07 12:57:21;;;;;;;0.10;0.10;;;;;;;;;;5049889;28;20230;-78
2022/03/07 12:59:50;;;;;;;0.00;0.00;;;;;;;;;;5032595;28;20654;-78
2022/03/07 13:02:18;;;;;;;0.10;0.10;;;;;;;;;;5050768;28;20649;-77
2022/03/07 13:04:45;;;;;;;0.10;0.10;;;;;;;;;;5032663;28;20636;-78
2022/03/07 13:07:15;;;;;;;0.10;0.10;;;;;;;;;;5031347;28;20622;-78
2022/03/07 13:09:43;;;;;;;0.10;0.10;;;;;;;;;;5030152;28;20620;-78
2022/03/07 13:12:12;;;;;;;0.10;0.10;;;;;;;;;;5029094;28;20207;-78
2022/03/07 13:14:40;;;;;;;0.10;0.10;;;;;;;;;;5030060;28;20253;-78
2022/03/07 13:17:10;;;;;;;0.10;0.10;;;;;;;;;;5028890;28;20633;-77
2022/03/07 13:19:38;;;;;;;0.10;0.10;;;;;;;;;;5027601;28;20227;-78
2022/03/07 13:22:07;;;;;;;0.10;0.10;;;;;;;;;;5043644;28;20227;-78
2022/03/07 13:24:35;;;;;;;0.10;0.10;;;;;;;;;;5024998;28;20623;-79
2022/03/07 13:27:04;;;;;;;0.00;0.00;;;;;;;;;;5025513;28;20227;-77
2022/03/07 13:29:34;;;;;;;0.10;0.10;;;;;;;;;;5027723;28;20706;-77
2022/03/07 13:32:02;;;;;;;0.10;0.10;;;;;;;;;;5027985;28;20626;-78
2022/03/07 13:34:40;;;;;;;0.10;0.10;;;;;;;;;;5048603;28;20623;-78
2022/03/07 13:37:12;;;;;;;0.10;0.10;;;;;;;;;;5026288;28;20632;-78
2022/03/07 13:39:41;;;;;;;0.10;0.10;;;;;;;;;;5029163;28;20661;-77
2022/03/07 13:42:34;;;;;;;0.10;0.10;;;;;;;;;;5045677;28;20714;-78
2022/03/07 13:45:05;;;;;;;0.00;0.00;;;;;;;;;;5028747;28;20721;-78
2022/03/07 13:47:33;;;;;;;0.10;0.10;;;;;;;;;;5028414;28;20626;-78
2022/03/07 13:50:04;;;;;;;0.10;0.10;;;;;;;;;;5048558;28;20605;-77
2022/03/07 13:52:32;;;;;;;0.10;0.10;;;;;;;;;;5021453;28;20756;-78
2022/03/07 13:55:00;;;;;;;0.10;0.10;;;;;;;;;;5030506;28;20637;-78
2022/03/07 13:57:32;;;;;;;0.10;0.10;;;;;;;;;;5026694;28;20622;-79
2022/03/07 14:00:00;;;;;;;0.10;0.10;;;;;;;;;;5043317;28;20760;-78
2022/03/07 14:02:31;;;;;;;0.10;0.10;;;;;;;;;;5026823;28;20645;-76
2022/03/07 14:05:00;;;;;;;0.10;0.10;;;;;;;;;;5044086;28;20628;-79
2022/03/07 14:07:29;;;;;;;0.10;0.10;;;;;;;;;;5044768;28;20641;-78
2022/03/07 14:09:57;;;;;;;0.10;0.10;;;;;;;;;;5026605;28;20621;-76
2022/03/07 14:12:30;;;;;;;0.10;0.10;;;;;;;;;;5029705;28;20699;-78
2022/03/07 14:14:58;;;;;;;0.10;0.10;;;;;;;;;;5029152;28;20630;-78
2022/03/07 14:17:29;;;;;;;0.10;0.10;;;;;;;;;;5026929;28;20629;-76
2022/03/07 14:19:58;;;;;;;0.10;0.10;;;;;;;;;;5027539;28;20650;-78
2022/03/07 14:22:25;;;;;;;0.10;0.10;;;;;;;;;;5046642;28;20757;-78
2022/03/07 14:24:53;;;;;;;0.10;0.10;;;;;;;;;;5029426;28;20640;-79
2022/03/07 14:27:25;;;;;;;0.10;0.10;;;;;;;;;;5032176;28;20708;-79
2022/03/07 14:29:55;;;;;;;0.10;0.10;;;;;;;;;;5028364;28;20622;-78
2022/03/07 14:32:23;;;;;;;0.10;0.10;;;;;;;;;;5029765;28;20669;-80
2022/03/07 14:34:54;;;;;;;0.00;0.00;;;;;;;;;;5048390;28;20656;-79
2022/03/07 14:37:23;;;;;;;0.10;0.10;;;;;;;;;;5030294;28;20633;-79
2022/03/07 14:39:51;;;;;;;0.10;0.10;;;;;;;;;;5026322;28;20645;-79
2022/03/07 14:42:19;;;;;;;0.10;0.10;;;;;;;;;;5041420;28;20703;-79
2022/03/07 14:44:47;;;;;;;0.10;0.10;;;;;;;;;;5046443;28;20696;-77
2022/03/07 14:47:16;;;;;;;0.00;0.00;;;;;;;;;;5049441;28;20616;-78
2022/03/07 14:49:44;;;;;;;0.10;0.10;;;;;;;;;;5027178;28;20622;-77
2022/03/07 14:52:13;;;;;;;0.13;0.13;;;;;;;;;;5046174;28;20622;-76